sensor_id;sensor_type;location;lat;lon;timestamp;temperature;humidity
5705;DHT22;2877;48.238;11.160;2023-04-25T00:02:20;6.90;99.90
5705;DHT22;2877;48.238;11.160;2023-04-25T00:04:46;6.80;99.90
5705;DHT22;2877;48.238;11.160;2023-04-25T00:07:14;6.80;99.90
5705;DHT22;2877;48.238;11.160;2023-04-25T00:09:39;6.80;99.90
5705;DHT22;2877;48.238;11.160;2023-04-25T00:12:06;6.80;99.90
5705;DHT22;2877;48.238;11.160;2023-04-25T00:14:31;6.80;99.90
5705;DHT22;2877;48.238;11.160;2023-04-25T00:16:59;6.90;99.90
5705;DHT22;2877;48.238;11.160;2023-04-25T00:19:25;7.00;99.90
5705;DHT22;2877;48.238;11.160;2023-04-25T00:21:52;6.90;99.90
5705;DHT22;2877;48.238;11.160;2023-04-25T00:24:19;6.90;99.90
5705;DHT22;2877;48.238;11.160;2023-04-25T00:26:44;6.90;99.90
5705;DHT22;2877;48.238;11.160;2023-04-25T00:29:10;6.90;99.90
5705;DHT22;2877;48.238;11.160;2023-04-25T00:31:35;6.80;99.90
5705;DHT22;2877;48.238;11.160;2023-04-25T00:34:01;6.70;99.90
5705;DHT22;2877;48.238;11.160;2023-04-25T00:36:27;6.60;99.90
5705;DHT22;2877;48.238;11.160;2023-04-25T00:38:53;6.50;99.90
5705;DHT22;2877;48.238;11.160;2023-04-25T00:41:20;6.50;99.90
5705;DHT22;2877;48.238;11.160;2023-04-25T00:43:46;6.50;99.90
5705;DHT22;2877;48.238;11.160;2023-04-25T00:46:13;6.50;99.90
5705;DHT22;2877;48.238;11.160;2023-04-25T00:48:38;6.50;99.90
5705;DHT22;2877;48.238;11.160;2023-04-25T00:51:04;6.40;99.90
5705;DHT22;2877;48.238;11.160;2023-04-25T00:53:30;6.30;99.90
5705;DHT22;2877;48.238;11.160;2023-04-25T00:55:57;6.20;99.90
5705;DHT22;2877;48.238;11.160;2023-04-25T00:58:22;6.20;99.90
5705;DHT22;2877;48.238;11.160;2023-04-25T01:00:50;6.20;99.90
5705;DHT22;2877;48.238;11.160;2023-04-25T01:03:18;6.10;99.90
5705;DHT22;2877;48.238;11.160;2023-04-25T01:05:46;6.10;99.90
5705;DHT22;2877;48.238;11.160;2023-04-25T01:08:12;6.10;99.90
5705;DHT22;2877;48.238;11.160;2023-04-25T01:10:38;6.00;99.90
5705;DHT22;2877;48.238;11.160;2023-04-25T01:13:04;6.00;99.90
5705;DHT22;2877;48.238;11.160;2023-04-25T01:15:30;6.00;99.90
5705;DHT22;2877;48.238;11.160;2023-04-25T01:17:56;5.90;99.90
5705;DHT22;2877;48.238;11.160;2023-04-25T01:20:23;5.80;99.90
5705;DHT22;2877;48.238;11.160;2023-04-25T01:22:50;5.80;99.90
5705;DHT22;2877;48.238;11.160;2023-04-25T01:25:17;5.80;99.90
5705;DHT22;2877;48.238;11.160;2023-04-25T01:27:42;5.60;99.90
5705;DHT22;2877;48.238;11.160;2023-04-25T01:30:09;5.50;99.90
5705;DHT22;2877;48.238;11.160;2023-04-25T01:32:35;5.40;99.90
5705;DHT22;2877;48.238;11.160;2023-04-25T01:35:11;5.40;99.90
5705;DHT22;2877;48.238;11.160;2023-04-25T01:37:40;5.40;99.90
5705;DHT22;2877;48.238;11.160;2023-04-25T01:40:07;5.40;99.90
5705;DHT22;2877;48.238;11.160;2023-04-25T01:42:35;5.30;99.90
5705;DHT22;2877;48.238;11.160;2023-04-25T01:45:01;5.30;99.90
5705;DHT22;2877;48.238;11.160;2023-04-25T01:47:27;5.30;99.90
5705;DHT22;2877;48.238;11.160;2023-04-25T01:49:52;5.40;99.90
5705;DHT22;2877;48.238;11.160;2023-04-25T01:52:18;5.40;99.90
5705;DHT22;2877;48.238;11.160;2023-04-25T01:54:44;5.50;99.90
5705;DHT22;2877;48.238;11.160;2023-04-25T01:57:13;5.50;99.90
5705;DHT22;2877;48.238;11.160;2023-04-25T01:59:39;5.50;99.90
5705;DHT22;2877;48.238;11.160;2023-04-25T02:02:06;5.50;99.90
5705;DHT22;2877;48.238;11.160;2023-04-25T02:04:31;5.60;99.90
5705;DHT22;2877;48.238;11.160;2023-04-25T02:06:57;5.70;99.90
5705;DHT22;2877;48.238;11.160;2023-04-25T02:09:23;5.80;99.90
5705;DHT22;2877;48.238;11.160;2023-04-25T02:11:48;5.90;99.90
5705;DHT22;2877;48.238;11.160;2023-04-25T02:14:14;6.00;99.90
5705;DHT22;2877;48.238;11.160;2023-04-25T02:16:40;6.00;99.90
5705;DHT22;2877;48.238;11.160;2023-04-25T02:19:05;6.00;99.90
5705;DHT22;2877;48.238;11.160;2023-04-25T02:21:31;6.10;99.90
5705;DHT22;2877;48.238;11.160;2023-04-25T02:23:57;6.20;99.90
5705;DHT22;2877;48.238;11.160;2023-04-25T02:26:23;6.20;99.90
5705;DHT22;2877;48.238;11.160;2023-04-25T02:28:49;6.30;99.90
5705;DHT22;2877;48.238;11.160;2023-04-25T02:31:15;6.30;99.90
5705;DHT22;2877;48.238;11.160;2023-04-25T02:33:41;6.30;99.90
5705;DHT22;2877;48.238;11.160;2023-04-25T02:36:07;6.40;99.90
5705;DHT22;2877;48.238;11.160;2023-04-25T02:38:33;6.40;99.90
5705;DHT22;2877;48.238;11.160;2023-04-25T02:40:59;6.40;99.90
5705;DHT22;2877;48.238;11.160;2023-04-25T02:43:25;6.50;99.90
5705;DHT22;2877;48.238;11.160;2023-04-25T02:45:50;6.60;99.90
5705;DHT22;2877;48.238;11.160;2023-04-25T02:48:16;6.60;99.90
5705;DHT22;2877;48.238;11.160;2023-04-25T02:50:41;6.60;99.90
5705;DHT22;2877;48.238;11.160;2023-04-25T02:53:07;6.60;99.90
5705;DHT22;2877;48.238;11.160;2023-04-25T02:55:33;6.50;99.90
5705;DHT22;2877;48.238;11.160;2023-04-25T02:57:58;6.50;99.90
5705;DHT22;2877;48.238;11.160;2023-04-25T03:00:24;6.40;99.90
5705;DHT22;2877;48.238;11.160;2023-04-25T03:02:50;6.40;99.90
5705;DHT22;2877;48.238;11.160;2023-04-25T03:05:16;6.40;99.90
5705;DHT22;2877;48.238;11.160;2023-04-25T03:07:42;6.40;99.90
5705;DHT22;2877;48.238;11.160;2023-04-25T03:10:09;6.40;99.90
5705;DHT22;2877;48.238;11.160;2023-04-25T03:12:35;6.40;99.90
5705;DHT22;2877;48.238;11.160;2023-04-25T03:15:01;6.30;99.90
5705;DHT22;2877;48.238;11.160;2023-04-25T03:17:26;6.30;99.90
5705;DHT22;2877;48.238;11.160;2023-04-25T03:19:52;6.40;99.90
5705;DHT22;2877;48.238;11.160;2023-04-25T03:22:17;6.30;99.90
5705;DHT22;2877;48.238;11.160;2023-04-25T03:24:43;6.20;99.90
5705;DHT22;2877;48.238;11.160;2023-04-25T03:27:09;6.20;99.90
5705;DHT22;2877;48.238;11.160;2023-04-25T03:29:34;6.20;99.90
5705;DHT22;2877;48.238;11.160;2023-04-25T03:32:00;6.20;99.90
5705;DHT22;2877;48.238;11.160;2023-04-25T03:34:26;6.20;99.90
5705;DHT22;2877;48.238;11.160;2023-04-25T03:36:51;6.10;99.90
5705;DHT22;2877;48.238;11.160;2023-04-25T03:39:17;6.10;99.90
5705;DHT22;2877;48.238;11.160;2023-04-25T03:41:43;6.10;99.90
5705;DHT22;2877;48.238;11.160;2023-04-25T03:44:08;6.20;99.90
5705;DHT22;2877;48.238;11.160;2023-04-25T03:46:34;6.20;99.90
5705;DHT22;2877;48.238;11.160;2023-04-25T03:48:59;6.20;99.90
5705;DHT22;2877;48.238;11.160;2023-04-25T03:51:25;6.20;99.90
5705;DHT22;2877;48.238;11.160;2023-04-25T03:53:51;6.10;99.90
5705;DHT22;2877;48.238;11.160;2023-04-25T03:56:17;6.10;99.90
5705;DHT22;2877;48.238;11.160;2023-04-25T03:58:43;6.10;99.90
5705;DHT22;2877;48.238;11.160;2023-04-25T04:01:09;6.10;99.90
5705;DHT22;2877;48.238;11.160;2023-04-25T04:03:35;6.10;99.90
5705;DHT22;2877;48.238;11.160;2023-04-25T04:06:03;6.10;99.90
5705;DHT22;2877;48.238;11.160;2023-04-25T04:08:29;6.00;99.90
5705;DHT22;2877;48.238;11.160;2023-04-25T04:10:56;6.00;99.90
5705;DHT22;2877;48.238;11.160;2023-04-25T04:13:21;6.00;99.90
5705;DHT22;2877;48.238;11.160;2023-04-25T04:15:47;5.90;99.90
5705;DHT22;2877;48.238;11.160;2023-04-25T04:18:13;5.90;99.90
5705;DHT22;2877;48.238;11.160;2023-04-25T04:20:38;6.00;99.90
5705;DHT22;2877;48.238;11.160;2023-04-25T04:23:04;6.00;99.90
5705;DHT22;2877;48.238;11.160;2023-04-25T04:25:30;6.00;99.90
5705;DHT22;2877;48.238;11.160;2023-04-25T04:27:56;6.10;99.90
5705;DHT22;2877;48.238;11.160;2023-04-25T04:30:23;6.10;99.90
5705;DHT22;2877;48.238;11.160;2023-04-25T04:32:55;6.00;99.90
5705;DHT22;2877;48.238;11.160;2023-04-25T04:35:21;6.10;99.90
5705;DHT22;2877;48.238;11.160;2023-04-25T04:37:47;6.10;99.90
5705;DHT22;2877;48.238;11.160;2023-04-25T04:40:13;6.10;99.90
5705;DHT22;2877;48.238;11.160;2023-04-25T04:42:41;6.10;99.90
5705;DHT22;2877;48.238;11.160;2023-04-25T04:45:08;6.10;99.90
5705;DHT22;2877;48.238;11.160;2023-04-25T04:47:34;6.10;99.90
5705;DHT22;2877;48.238;11.160;2023-04-25T04:50:11;6.10;99.90
5705;DHT22;2877;48.238;11.160;2023-04-25T04:52:37;6.10;99.90
5705;DHT22;2877;48.238;11.160;2023-04-25T04:55:04;6.10;99.90
5705;DHT22;2877;48.238;11.160;2023-04-25T04:57:31;6.10;99.90
5705;DHT22;2877;48.238;11.160;2023-04-25T04:59:58;6.10;99.90
5705;DHT22;2877;48.238;11.160;2023-04-25T05:02:24;6.20;99.90
5705;DHT22;2877;48.238;11.160;2023-04-25T05:04:50;6.20;99.90
5705;DHT22;2877;48.238;11.160;2023-04-25T05:07:17;6.30;99.90
5705;DHT22;2877;48.238;11.160;2023-04-25T05:09:42;6.30;99.90
5705;DHT22;2877;48.238;11.160;2023-04-25T05:12:08;6.20;99.90
5705;DHT22;2877;48.238;11.160;2023-04-25T05:14:33;6.20;99.90
5705;DHT22;2877;48.238;11.160;2023-04-25T05:16:59;6.30;99.90
5705;DHT22;2877;48.238;11.160;2023-04-25T05:19:25;6.40;99.90
5705;DHT22;2877;48.238;11.160;2023-04-25T05:21:50;6.40;99.90
5705;DHT22;2877;48.238;11.160;2023-04-25T05:24:16;6.50;99.90
5705;DHT22;2877;48.238;11.160;2023-04-25T05:26:42;6.50;99.90
5705;DHT22;2877;48.238;11.160;2023-04-25T05:29:07;6.50;99.90
5705;DHT22;2877;48.238;11.160;2023-04-25T05:31:33;6.30;99.90
5705;DHT22;2877;48.238;11.160;2023-04-25T05:33:59;6.20;99.90
5705;DHT22;2877;48.238;11.160;2023-04-25T05:36:25;6.20;99.90
5705;DHT22;2877;48.238;11.160;2023-04-25T05:38:51;6.20;99.90
5705;DHT22;2877;48.238;11.160;2023-04-25T05:41:16;6.20;99.90
5705;DHT22;2877;48.238;11.160;2023-04-25T05:43:42;6.30;99.90
5705;DHT22;2877;48.238;11.160;2023-04-25T05:46:12;6.30;99.90
5705;DHT22;2877;48.238;11.160;2023-04-25T05:48:38;6.30;99.90
5705;DHT22;2877;48.238;11.160;2023-04-25T05:51:04;6.30;99.90
5705;DHT22;2877;48.238;11.160;2023-04-25T05:53:30;6.30;99.90
5705;DHT22;2877;48.238;11.160;2023-04-25T05:55:55;6.30;99.90
5705;DHT22;2877;48.238;11.160;2023-04-25T05:58:21;6.40;99.90
5705;DHT22;2877;48.238;11.160;2023-04-25T06:00:46;6.50;99.90
5705;DHT22;2877;48.238;11.160;2023-04-25T06:03:12;6.50;99.90
5705;DHT22;2877;48.238;11.160;2023-04-25T06:05:41;6.60;99.90
5705;DHT22;2877;48.238;11.160;2023-04-25T06:08:07;6.70;99.90
5705;DHT22;2877;48.238;11.160;2023-04-25T06:10:33;6.90;99.90
5705;DHT22;2877;48.238;11.160;2023-04-25T06:12:58;7.20;99.90
5705;DHT22;2877;48.238;11.160;2023-04-25T06:15:24;7.30;99.90
5705;DHT22;2877;48.238;11.160;2023-04-25T06:17:50;7.40;99.90
5705;DHT22;2877;48.238;11.160;2023-04-25T06:20:15;7.60;99.90
5705;DHT22;2877;48.238;11.160;2023-04-25T06:22:41;7.80;99.90
5705;DHT22;2877;48.238;11.160;2023-04-25T06:25:07;8.00;99.90
5705;DHT22;2877;48.238;11.160;2023-04-25T06:27:33;8.10;99.90
5705;DHT22;2877;48.238;11.160;2023-04-25T06:29:59;8.00;99.90
5705;DHT22;2877;48.238;11.160;2023-04-25T06:32:24;7.80;99.90
5705;DHT22;2877;48.238;11.160;2023-04-25T06:34:51;7.70;99.90
5705;DHT22;2877;48.238;11.160;2023-04-25T06:37:16;7.60;99.90
5705;DHT22;2877;48.238;11.160;2023-04-25T06:39:42;7.60;99.90
5705;DHT22;2877;48.238;11.160;2023-04-25T06:42:07;7.50;99.90
5705;DHT22;2877;48.238;11.160;2023-04-25T06:44:33;7.60;99.90
5705;DHT22;2877;48.238;11.160;2023-04-25T06:46:59;7.70;99.90
5705;DHT22;2877;48.238;11.160;2023-04-25T06:49:24;7.80;99.90
5705;DHT22;2877;48.238;11.160;2023-04-25T06:51:50;7.70;99.90
5705;DHT22;2877;48.238;11.160;2023-04-25T06:54:15;7.70;99.90
5705;DHT22;2877;48.238;11.160;2023-04-25T06:56:41;7.70;99.90
5705;DHT22;2877;48.238;11.160;2023-04-25T06:59:07;7.60;99.90
5705;DHT22;2877;48.238;11.160;2023-04-25T07:01:32;7.60;99.90
5705;DHT22;2877;48.238;11.160;2023-04-25T07:03:58;7.60;99.90
5705;DHT22;2877;48.238;11.160;2023-04-25T07:06:24;7.60;99.90
5705;DHT22;2877;48.238;11.160;2023-04-25T07:08:51;7.90;99.90
5705;DHT22;2877;48.238;11.160;2023-04-25T07:11:16;8.00;99.90
5705;DHT22;2877;48.238;11.160;2023-04-25T07:13:42;8.20;99.90
5705;DHT22;2877;48.238;11.160;2023-04-25T07:16:07;8.30;99.90
5705;DHT22;2877;48.238;11.160;2023-04-25T07:18:33;8.50;99.90
5705;DHT22;2877;48.238;11.160;2023-04-25T07:20:58;8.80;99.90
5705;DHT22;2877;48.238;11.160;2023-04-25T07:23:24;8.90;99.90
5705;DHT22;2877;48.238;11.160;2023-04-25T07:25:49;8.80;99.90
5705;DHT22;2877;48.238;11.160;2023-04-25T07:28:15;8.60;99.90
5705;DHT22;2877;48.238;11.160;2023-04-25T07:30:40;8.60;99.90
5705;DHT22;2877;48.238;11.160;2023-04-25T07:33:06;8.30;99.90
5705;DHT22;2877;48.238;11.160;2023-04-25T07:35:31;8.10;99.90
5705;DHT22;2877;48.238;11.160;2023-04-25T07:37:57;8.00;99.90
5705;DHT22;2877;48.238;11.160;2023-04-25T07:40:24;8.00;99.90
5705;DHT22;2877;48.238;11.160;2023-04-25T07:42:49;8.10;99.90
5705;DHT22;2877;48.238;11.160;2023-04-25T07:45:15;8.10;99.90
5705;DHT22;2877;48.238;11.160;2023-04-25T07:47:41;7.90;99.90
5705;DHT22;2877;48.238;11.160;2023-04-25T07:50:07;7.80;99.90
5705;DHT22;2877;48.238;11.160;2023-04-25T07:52:34;8.00;99.90
5705;DHT22;2877;48.238;11.160;2023-04-25T07:54:59;8.10;99.90
5705;DHT22;2877;48.238;11.160;2023-04-25T07:57:25;8.30;99.90
5705;DHT22;2877;48.238;11.160;2023-04-25T07:59:51;8.50;99.90
5705;DHT22;2877;48.238;11.160;2023-04-25T08:02:16;8.90;99.90
5705;DHT22;2877;48.238;11.160;2023-04-25T08:04:42;9.20;99.90
5705;DHT22;2877;48.238;11.160;2023-04-25T08:07:07;9.20;99.90
5705;DHT22;2877;48.238;11.160;2023-04-25T08:09:33;9.10;99.90
5705;DHT22;2877;48.238;11.160;2023-04-25T08:12:00;9.00;99.90
5705;DHT22;2877;48.238;11.160;2023-04-25T08:14:27;9.00;99.90
5705;DHT22;2877;48.238;11.160;2023-04-25T08:16:54;8.80;99.90
5705;DHT22;2877;48.238;11.160;2023-04-25T08:19:19;9.00;99.90
5705;DHT22;2877;48.238;11.160;2023-04-25T08:21:45;9.00;99.90
5705;DHT22;2877;48.238;11.160;2023-04-25T08:24:10;9.10;99.90
5705;DHT22;2877;48.238;11.160;2023-04-25T08:26:36;9.30;99.90
5705;DHT22;2877;48.238;11.160;2023-04-25T08:29:02;9.40;99.90
5705;DHT22;2877;48.238;11.160;2023-04-25T08:31:28;9.60;99.90
5705;DHT22;2877;48.238;11.160;2023-04-25T08:33:53;9.50;99.90
5705;DHT22;2877;48.238;11.160;2023-04-25T08:36:19;9.50;99.90
5705;DHT22;2877;48.238;11.160;2023-04-25T08:38:44;9.70;99.90
5705;DHT22;2877;48.238;11.160;2023-04-25T08:41:11;9.80;99.90
5705;DHT22;2877;48.238;11.160;2023-04-25T08:43:37;10.10;99.90
5705;DHT22;2877;48.238;11.160;2023-04-25T08:46:07;10.40;99.90
5705;DHT22;2877;48.238;11.160;2023-04-25T08:48:33;10.60;99.90
5705;DHT22;2877;48.238;11.160;2023-04-25T08:51:02;10.60;99.90
5705;DHT22;2877;48.238;11.160;2023-04-25T08:53:32;10.40;99.90
5705;DHT22;2877;48.238;11.160;2023-04-25T08:55:59;10.20;99.90
5705;DHT22;2877;48.238;11.160;2023-04-25T08:58:27;10.10;99.90
5705;DHT22;2877;48.238;11.160;2023-04-25T09:00:53;10.40;99.90
5705;DHT22;2877;48.238;11.160;2023-04-25T09:03:19;10.70;99.90
5705;DHT22;2877;48.238;11.160;2023-04-25T09:05:45;10.50;99.90
5705;DHT22;2877;48.238;11.160;2023-04-25T09:08:10;10.40;99.90
5705;DHT22;2877;48.238;11.160;2023-04-25T09:10:37;10.00;99.90
5705;DHT22;2877;48.238;11.160;2023-04-25T09:13:09;10.00;99.90
5705;DHT22;2877;48.238;11.160;2023-04-25T09:15:48;9.80;99.90
5705;DHT22;2877;48.238;11.160;2023-04-25T09:18:24;9.80;99.90
5705;DHT22;2877;48.238;11.160;2023-04-25T09:20:54;10.00;99.90
5705;DHT22;2877;48.238;11.160;2023-04-25T09:23:21;10.50;99.90
5705;DHT22;2877;48.238;11.160;2023-04-25T09:25:49;11.00;99.90
5705;DHT22;2877;48.238;11.160;2023-04-25T09:28:15;11.10;99.90
5705;DHT22;2877;48.238;11.160;2023-04-25T09:30:40;11.40;99.90
5705;DHT22;2877;48.238;11.160;2023-04-25T09:33:07;11.90;99.50
5705;DHT22;2877;48.238;11.160;2023-04-25T09:35:43;11.80;99.00
5705;DHT22;2877;48.238;11.160;2023-04-25T09:38:14;11.70;99.90
5705;DHT22;2877;48.238;11.160;2023-04-25T09:40:44;11.60;99.90
5705;DHT22;2877;48.238;11.160;2023-04-25T09:43:22;11.40;98.60
5705;DHT22;2877;48.238;11.160;2023-04-25T09:45:48;10.90;97.80
5705;DHT22;2877;48.238;11.160;2023-04-25T09:48:19;10.80;98.70
5705;DHT22;2877;48.238;11.160;2023-04-25T09:53:31;10.80;99.90
5705;DHT22;2877;48.238;11.160;2023-04-25T09:56:00;11.00;99.90
5705;DHT22;2877;48.238;11.160;2023-04-25T09:58:29;11.10;99.90
5705;DHT22;2877;48.238;11.160;2023-04-25T10:00:59;11.10;99.90
5705;DHT22;2877;48.238;11.160;2023-04-25T10:03:26;11.00;99.90
5705;DHT22;2877;48.238;11.160;2023-04-25T10:05:52;10.60;98.20
5705;DHT22;2877;48.238;11.160;2023-04-25T10:08:19;10.40;99.90
5705;DHT22;2877;48.238;11.160;2023-04-25T10:10:46;9.90;99.90
5705;DHT22;2877;48.238;11.160;2023-04-25T10:13:12;9.50;99.90
5705;DHT22;2877;48.238;11.160;2023-04-25T10:15:40;8.90;99.90
5705;DHT22;2877;48.238;11.160;2023-04-25T10:18:26;8.60;99.90
5705;DHT22;2877;48.238;11.160;2023-04-25T10:20:54;8.40;99.90
5705;DHT22;2877;48.238;11.160;2023-04-25T10:23:20;8.20;99.90
5705;DHT22;2877;48.238;11.160;2023-04-25T10:25:46;7.90;99.90
5705;DHT22;2877;48.238;11.160;2023-04-25T10:28:13;7.80;99.90
5705;DHT22;2877;48.238;11.160;2023-04-25T10:31:03;7.80;99.90
5705;DHT22;2877;48.238;11.160;2023-04-25T10:33:33;7.90;99.90
5705;DHT22;2877;48.238;11.160;2023-04-25T10:35:59;7.90;99.90
5705;DHT22;2877;48.238;11.160;2023-04-25T10:38:33;8.00;99.90
5705;DHT22;2877;48.238;11.160;2023-04-25T10:41:06;8.10;99.90
5705;DHT22;2877;48.238;11.160;2023-04-25T10:43:38;8.10;99.90
5705;DHT22;2877;48.238;11.160;2023-04-25T10:46:27;8.00;99.90
5705;DHT22;2877;48.238;11.160;2023-04-25T10:48:55;7.90;99.90
5705;DHT22;2877;48.238;11.160;2023-04-25T10:51:28;7.90;99.90
5705;DHT22;2877;48.238;11.160;2023-04-25T10:54:04;8.00;99.90
5705;DHT22;2877;48.238;11.160;2023-04-25T10:56:33;8.20;99.90
5705;DHT22;2877;48.238;11.160;2023-04-25T10:59:18;8.50;99.90
5705;DHT22;2877;48.238;11.160;2023-04-25T11:01:45;8.70;99.90
5705;DHT22;2877;48.238;11.160;2023-04-25T11:04:33;9.00;99.90
5705;DHT22;2877;48.238;11.160;2023-04-25T11:07:19;9.20;99.90
5705;DHT22;2877;48.238;11.160;2023-04-25T11:09:49;9.40;99.90
5705;DHT22;2877;48.238;11.160;2023-04-25T11:12:14;9.50;99.90
5705;DHT22;2877;48.238;11.160;2023-04-25T11:14:41;9.50;99.90
5705;DHT22;2877;48.238;11.160;2023-04-25T11:17:07;9.50;99.90
5705;DHT22;2877;48.238;11.160;2023-04-25T11:19:32;9.70;99.90
5705;DHT22;2877;48.238;11.160;2023-04-25T11:21:59;9.60;99.90
5705;DHT22;2877;48.238;11.160;2023-04-25T11:24:32;9.50;99.90
5705;DHT22;2877;48.238;11.160;2023-04-25T11:27:00;9.40;99.90
5705;DHT22;2877;48.238;11.160;2023-04-25T11:29:30;9.10;99.90
5705;DHT22;2877;48.238;11.160;2023-04-25T11:31:56;8.60;99.90
5705;DHT22;2877;48.238;11.160;2023-04-25T11:34:23;8.20;99.90
5705;DHT22;2877;48.238;11.160;2023-04-25T11:36:50;7.90;99.90
5705;DHT22;2877;48.238;11.160;2023-04-25T11:39:18;7.70;99.90
5705;DHT22;2877;48.238;11.160;2023-04-25T11:41:43;7.80;99.90
5705;DHT22;2877;48.238;11.160;2023-04-25T11:44:09;7.80;99.90
5705;DHT22;2877;48.238;11.160;2023-04-25T11:46:35;7.90;99.90
5705;DHT22;2877;48.238;11.160;2023-04-25T11:49:00;7.90;99.90
5705;DHT22;2877;48.238;11.160;2023-04-25T11:51:26;7.80;99.90
5705;DHT22;2877;48.238;11.160;2023-04-25T11:53:52;7.80;99.90
5705;DHT22;2877;48.238;11.160;2023-04-25T11:56:18;7.70;99.90
5705;DHT22;2877;48.238;11.160;2023-04-25T12:01:32;7.90;99.90
5705;DHT22;2877;48.238;11.160;2023-04-25T12:04:09;8.20;99.90
5705;DHT22;2877;48.238;11.160;2023-04-25T12:06:37;8.30;99.90
5705;DHT22;2877;48.238;11.160;2023-04-25T12:09:11;8.30;99.90
5705;DHT22;2877;48.238;11.160;2023-04-25T12:11:45;8.00;99.90
5705;DHT22;2877;48.238;11.160;2023-04-25T12:14:12;7.60;99.90
5705;DHT22;2877;48.238;11.160;2023-04-25T12:19:07;7.30;99.90
5705;DHT22;2877;48.238;11.160;2023-04-25T12:21:33;7.40;99.90
5705;DHT22;2877;48.238;11.160;2023-04-25T12:24:22;7.10;99.90
5705;DHT22;2877;48.238;11.160;2023-04-25T12:29:21;6.60;99.90
5705;DHT22;2877;48.238;11.160;2023-04-25T12:31:48;6.50;99.90
5705;DHT22;2877;48.238;11.160;2023-04-25T12:34:14;6.40;99.90
5705;DHT22;2877;48.238;11.160;2023-04-25T12:36:40;6.20;99.90
5705;DHT22;2877;48.238;11.160;2023-04-25T12:39:06;6.20;99.90
5705;DHT22;2877;48.238;11.160;2023-04-25T12:41:32;6.10;99.90
5705;DHT22;2877;48.238;11.160;2023-04-25T12:43:57;6.00;99.90
5705;DHT22;2877;48.238;11.160;2023-04-25T12:46:23;6.00;99.90
5705;DHT22;2877;48.238;11.160;2023-04-25T12:48:49;6.00;99.90
5705;DHT22;2877;48.238;11.160;2023-04-25T12:51:14;5.80;99.90
5705;DHT22;2877;48.238;11.160;2023-04-25T12:53:41;5.70;99.90
5705;DHT22;2877;48.238;11.160;2023-04-25T12:56:07;5.60;99.90
5705;DHT22;2877;48.238;11.160;2023-04-25T12:58:33;5.60;99.90
5705;DHT22;2877;48.238;11.160;2023-04-25T13:00:59;5.60;99.90
5705;DHT22;2877;48.238;11.160;2023-04-25T13:03:24;5.50;99.90
5705;DHT22;2877;48.238;11.160;2023-04-25T13:05:51;5.50;99.90
5705;DHT22;2877;48.238;11.160;2023-04-25T13:08:18;5.50;99.90
5705;DHT22;2877;48.238;11.160;2023-04-25T13:10:43;5.60;99.90
5705;DHT22;2877;48.238;11.160;2023-04-25T13:13:09;5.60;99.90
5705;DHT22;2877;48.238;11.160;2023-04-25T13:15:34;5.70;99.90
5705;DHT22;2877;48.238;11.160;2023-04-25T13:18:00;5.90;99.90
5705;DHT22;2877;48.238;11.160;2023-04-25T13:20:26;5.90;99.90
5705;DHT22;2877;48.238;11.160;2023-04-25T13:22:51;5.90;99.90
5705;DHT22;2877;48.238;11.160;2023-04-25T13:25:17;6.00;99.90
5705;DHT22;2877;48.238;11.160;2023-04-25T13:27:43;6.10;99.90
5705;DHT22;2877;48.238;11.160;2023-04-25T13:30:10;6.20;99.90
5705;DHT22;2877;48.238;11.160;2023-04-25T13:32:36;6.20;99.90
5705;DHT22;2877;48.238;11.160;2023-04-25T13:35:10;6.10;99.90
5705;DHT22;2877;48.238;11.160;2023-04-25T13:37:37;5.90;99.90
5705;DHT22;2877;48.238;11.160;2023-04-25T13:40:09;5.70;99.90
5705;DHT22;2877;48.238;11.160;2023-04-25T13:42:37;5.80;99.90
5705;DHT22;2877;48.238;11.160;2023-04-25T13:45:03;5.80;99.90
5705;DHT22;2877;48.238;11.160;2023-04-25T13:47:28;5.70;99.90
5705;DHT22;2877;48.238;11.160;2023-04-25T13:49:55;5.80;99.90
5705;DHT22;2877;48.238;11.160;2023-04-25T13:52:21;5.80;99.90
5705;DHT22;2877;48.238;11.160;2023-04-25T13:54:46;5.90;99.90
5705;DHT22;2877;48.238;11.160;2023-04-25T13:57:12;5.70;99.90
5705;DHT22;2877;48.238;11.160;2023-04-25T13:59:39;5.90;99.90
5705;DHT22;2877;48.238;11.160;2023-04-25T14:02:04;6.10;99.90
5705;DHT22;2877;48.238;11.160;2023-04-25T14:04:30;6.10;99.90
5705;DHT22;2877;48.238;11.160;2023-04-25T14:06:55;6.30;99.90
5705;DHT22;2877;48.238;11.160;2023-04-25T14:09:21;6.30;99.90
5705;DHT22;2877;48.238;11.160;2023-04-25T14:11:51;6.20;99.90
5705;DHT22;2877;48.238;11.160;2023-04-25T14:14:18;6.20;99.90
5705;DHT22;2877;48.238;11.160;2023-04-25T14:16:43;6.20;99.90
5705;DHT22;2877;48.238;11.160;2023-04-25T14:19:09;6.30;99.90
5705;DHT22;2877;48.238;11.160;2023-04-25T14:21:34;6.40;99.90
5705;DHT22;2877;48.238;11.160;2023-04-25T14:24:00;6.50;99.90
5705;DHT22;2877;48.238;11.160;2023-04-25T14:26:26;6.60;99.90
5705;DHT22;2877;48.238;11.160;2023-04-25T14:28:52;6.50;99.90
5705;DHT22;2877;48.238;11.160;2023-04-25T14:31:17;6.40;99.90
5705;DHT22;2877;48.238;11.160;2023-04-25T14:33:43;6.50;99.90
5705;DHT22;2877;48.238;11.160;2023-04-25T14:36:09;6.60;99.90
5705;DHT22;2877;48.238;11.160;2023-04-25T14:38:36;6.80;99.90
5705;DHT22;2877;48.238;11.160;2023-04-25T14:41:03;6.90;99.90
5705;DHT22;2877;48.238;11.160;2023-04-25T14:43:28;6.90;99.90
5705;DHT22;2877;48.238;11.160;2023-04-25T14:45:54;6.90;99.90
5705;DHT22;2877;48.238;11.160;2023-04-25T14:48:19;6.90;99.90
5705;DHT22;2877;48.238;11.160;2023-04-25T14:50:46;6.90;99.90
5705;DHT22;2877;48.238;11.160;2023-04-25T14:53:12;6.80;99.90
5705;DHT22;2877;48.238;11.160;2023-04-25T14:55:37;6.50;99.90
5705;DHT22;2877;48.238;11.160;2023-04-25T14:58:03;6.40;99.90
5705;DHT22;2877;48.238;11.160;2023-04-25T15:00:29;6.40;99.90
5705;DHT22;2877;48.238;11.160;2023-04-25T15:02:56;6.50;99.90
5705;DHT22;2877;48.238;11.160;2023-04-25T15:05:22;6.40;99.90
5705;DHT22;2877;48.238;11.160;2023-04-25T15:07:47;6.40;99.90
5705;DHT22;2877;48.238;11.160;2023-04-25T15:10:13;6.40;99.90
5705;DHT22;2877;48.238;11.160;2023-04-25T15:12:41;6.40;99.90
5705;DHT22;2877;48.238;11.160;2023-04-25T15:15:08;6.50;99.90
5705;DHT22;2877;48.238;11.160;2023-04-25T15:17:38;6.50;99.90
5705;DHT22;2877;48.238;11.160;2023-04-25T15:20:07;6.50;99.90
5705;DHT22;2877;48.238;11.160;2023-04-25T15:22:35;6.40;99.90
5705;DHT22;2877;48.238;11.160;2023-04-25T15:25:01;6.40;99.90
5705;DHT22;2877;48.238;11.160;2023-04-25T15:27:26;6.30;99.90
5705;DHT22;2877;48.238;11.160;2023-04-25T15:29:52;6.40;99.90
5705;DHT22;2877;48.238;11.160;2023-04-25T15:32:18;6.50;99.90
5705;DHT22;2877;48.238;11.160;2023-04-25T15:34:44;6.50;99.90
5705;DHT22;2877;48.238;11.160;2023-04-25T15:37:09;6.60;99.90
5705;DHT22;2877;48.238;11.160;2023-04-25T15:39:35;6.60;99.90
5705;DHT22;2877;48.238;11.160;2023-04-25T15:42:00;6.70;99.90
5705;DHT22;2877;48.238;11.160;2023-04-25T15:44:27;6.60;99.90
5705;DHT22;2877;48.238;11.160;2023-04-25T15:46:53;6.60;99.90
5705;DHT22;2877;48.238;11.160;2023-04-25T15:49:19;6.60;99.90
5705;DHT22;2877;48.238;11.160;2023-04-25T15:51:46;6.60;99.90
5705;DHT22;2877;48.238;11.160;2023-04-25T15:54:12;6.70;99.90
5705;DHT22;2877;48.238;11.160;2023-04-25T15:56:38;6.70;99.90
5705;DHT22;2877;48.238;11.160;2023-04-25T15:59:03;6.70;99.90
5705;DHT22;2877;48.238;11.160;2023-04-25T16:01:29;6.70;99.90
5705;DHT22;2877;48.238;11.160;2023-04-25T16:03:56;6.70;99.90
5705;DHT22;2877;48.238;11.160;2023-04-25T16:06:25;6.80;99.90
5705;DHT22;2877;48.238;11.160;2023-04-25T16:08:51;6.80;99.90